Time;durP1;ratioP1;P1;durP2;ratioP2;P2;SDS_P1;SDS_P2;PMS_P1;PMS_P2;Temp;Humidity;BMP_temperature;BMP_pressure;BME280_temperature;BME280_humidity;BME280_pressure;Samples;Min_cycle;Max_cycle;Signal;HPM_P1;HPM_P2
2021/10/24 00:02:10;;;;;;;39.15;21.35;;;;;;;5.46;100.00;102806.84;5052091;28;20036;-84
2021/10/24 00:04:37;;;;;;;44.38;23.15;;;;;;;5.41;100.00;102814.09;5053825;28;20029;-84
2021/10/24 00:07:03;;;;;;;39.97;19.80;;;;;;;5.32;100.00;102812.66;5052940;28;20393;-84
2021/10/24 00:09:28;;;;;;;41.50;21.33;;;;;;;5.27;100.00;102811.97;5053648;28;20029;-84
2021/10/24 00:11:54;;;;;;;41.92;22.20;;;;;;;5.22;100.00;102811.25;5053262;28;20033;-84
2021/10/24 00:14:19;;;;;;;36.50;21.30;;;;;;;5.18;100.00;102797.34;5052556;28;20048;-84
2021/10/24 00:16:44;;;;;;;34.03;19.80;;;;;;;5.15;100.00;102804.47;5052127;28;20033;-84
2021/10/24 00:19:10;;;;;;;40.00;21.83;;;;;;;5.12;100.00;102801.03;5051691;28;20037;-85
2021/10/24 00:21:35;;;;;;;31.48;18.95;;;;;;;5.07;100.00;102804.75;5053314;28;20146;-84
2021/10/24 00:24:01;;;;;;;29.20;18.90;;;;;;;5.02;100.00;102802.28;5051688;28;20029;-85
2021/10/24 00:26:26;;;;;;;29.92;18.17;;;;;;;4.97;100.00;102788.41;5053449;28;20481;-85
2021/10/24 00:28:52;;;;;;;33.05;18.33;;;;;;;4.91;100.00;102797.41;5052370;28;20078;-85
2021/10/24 00:31:17;;;;;;;37.85;20.42;;;;;;;4.89;100.00;102795.72;5052977;28;20037;-83
2021/10/24 00:33:43;;;;;;;42.05;19.45;;;;;;;4.90;100.00;102790.41;5053385;28;20039;-84
2021/10/24 00:36:09;;;;;;;41.70;21.33;;;;;;;4.89;100.00;102788.66;5052626;28;20461;-84
2021/10/24 00:38:34;;;;;;;32.67;18.35;;;;;;;4.85;100.00;102791.47;5054906;28;20068;-84
2021/10/24 00:41:00;;;;;;;30.23;18.20;;;;;;;4.82;100.00;102788.94;5055141;28;20385;-87
2021/10/24 00:43:26;;;;;;;30.95;18.33;;;;;;;4.79;100.00;102791.69;5051949;28;20115;-83
2021/10/24 00:45:51;;;;;;;36.35;21.38;;;;;;;4.76;100.00;102795.28;5053024;28;20032;-83
2021/10/24 00:48:16;;;;;;;30.15;17.67;;;;;;;4.71;100.00;102791.97;5052352;28;20033;-84
2021/10/24 00:50:42;;;;;;;32.85;19.80;;;;;;;4.69;100.00;102791.16;5052700;28;20488;-84
2021/10/24 00:53:10;;;;;;;26.60;16.98;;;;;;;4.67;100.00;102785.94;5052176;28;20461;-84
2021/10/24 00:55:36;;;;;;;29.98;17.27;;;;;;;4.65;100.00;102786.91;5051710;28;20393;-84
2021/10/24 00:58:05;;;;;;;42.08;22.85;;;;;;;4.62;100.00;102787.84;5052773;28;20029;-84
2021/10/24 01:00:30;;;;;;;45.13;23.05;;;;;;;4.62;100.00;102782.59;5051514;28;20028;-84
2021/10/24 01:02:55;;;;;;;30.27;18.60;;;;;;;4.57;100.00;102772.19;5052937;28;20041;-84
2021/10/24 01:05:21;;;;;;;40.45;22.60;;;;;;;4.52;100.00;102781.16;5051862;28;20043;-84
2021/10/24 01:07:48;;;;;;;23.85;16.98;;;;;;;4.44;100.00;102780.59;5052767;28;20033;-84
2021/10/24 01:10:16;;;;;;;39.40;22.90;;;;;;;4.35;100.00;102779.97;5050708;28;20032;-84
2021/10/24 01:12:47;;;;;;;34.33;19.52;;;;;;;4.29;100.00;102779.31;5034903;28;20021;-83
2021/10/24 01:15:14;;;;;;;39.35;24.52;;;;;;;4.22;100.00;102774.25;5052289;28;20489;-85
2021/10/24 01:17:40;;;;;;;55.75;27.63;;;;;;;4.14;100.00;102776.28;5052761;28;20065;-84
2021/10/24 01:20:07;;;;;;;75.50;32.80;;;;;;;4.06;100.00;102770.38;5051577;28;20097;-85
2021/10/24 01:22:37;;;;;;;167.98;61.22;;;;;;;4.02;100.00;102766.13;5052445;28;20037;-84
2021/10/24 01:25:04;;;;;;;194.73;69.57;;;;;;;3.95;100.00;102760.19;5052381;28;20032;-84
2021/10/24 01:27:30;;;;;;;156.98;59.00;;;;;;;3.88;100.00;102759.53;5051862;28;20465;-85
2021/10/24 01:29:57;;;;;;;114.97;45.83;;;;;;;3.84;100.00;102767.59;5050978;28;20431;-84
2021/10/24 01:32:23;;;;;;;100.70;41.13;;;;;;;3.80;100.00;102758.03;5051963;28;20071;-85
2021/10/24 01:34:49;;;;;;;80.85;35.30;;;;;;;3.78;100.00;102762.50;5052479;28;20083;-84
2021/10/24 01:37:15;;;;;;;73.28;32.72;;;;;;;3.74;100.00;102756.47;5051722;28;20037;-84
2021/10/24 01:39:41;;;;;;;65.25;31.15;;;;;;;3.75;100.00;102757.31;5051017;28;20025;-84
2021/10/24 01:42:07;;;;;;;58.17;29.67;;;;;;;3.74;100.00;102756.47;5050898;28;20102;-88
2021/10/24 01:44:32;;;;;;;61.55;29.85;;;;;;;3.77;100.00;102753.72;5052031;28;20037;-84
2021/10/24 01:46:57;;;;;;;56.40;28.90;;;;;;;3.76;100.00;102748.50;5050922;28;20432;-84
2021/10/24 01:49:23;;;;;;;72.80;32.60;;;;;;;3.75;100.00;102752.94;5051626;28;20025;-84
2021/10/24 01:51:48;;;;;;;59.92;29.60;;;;;;;3.74;100.00;102745.94;5052453;28;20036;-84
2021/10/24 01:54:14;;;;;;;50.00;26.10;;;;;;;3.72;100.00;102747.75;5051613;28;20035;-84
2021/10/24 01:56:39;;;;;;;53.08;27.98;;;;;;;3.70;100.00;102737.28;5052182;28;20069;-84
2021/10/24 01:59:05;;;;;;;43.40;24.90;;;;;;;3.70;100.00;102741.66;5052029;28;20367;-84
2021/10/24 02:01:30;;;;;;;47.85;25.20;;;;;;;3.72;100.00;102737.22;5051259;28;20122;-84
2021/10/24 02:03:55;;;;;;;47.22;25.27;;;;;;;3.74;100.00;102730.13;5052151;28;20037;-83
2021/10/24 02:06:21;;;;;;;41.95;24.20;;;;;;;3.74;100.00;102731.91;5050146;28;20104;-83
2021/10/24 02:08:46;;;;;;;52.10;28.33;;;;;;;3.70;100.00;102732.00;5051989;28;20063;-84
2021/10/24 02:11:11;;;;;;;47.50;24.35;;;;;;;3.65;100.00;102726.00;5051089;28;20037;-84
2021/10/24 02:13:37;;;;;;;51.70;27.00;;;;;;;3.59;100.00;102728.84;5051651;28;20053;-83
2021/10/24 02:16:03;;;;;;;44.45;23.90;;;;;;;3.56;100.00;102728.09;5051592;28;20378;-84
2021/10/24 02:18:28;;;;;;;32.13;19.67;;;;;;;3.49;100.00;102728.28;5051074;28;20033;-84
2021/10/24 02:20:53;;;;;;;32.72;19.98;;;;;;;3.46;100.00;102719.59;5050813;28;20040;-85
2021/10/24 02:23:19;;;;;;;49.38;25.80;;;;;;;3.39;100.00;102721.56;5049829;28;20033;-84
2021/10/24 02:25:44;;;;;;;50.42;27.33;;;;;;;3.32;100.00;102712.97;5052201;28;20052;-84
2021/10/24 02:28:10;;;;;;;49.42;26.98;;;;;;;3.28;100.00;102708.72;5051964;28;20471;-84
2021/10/24 02:30:35;;;;;;;38.80;23.15;;;;;;;3.21;100.00;102711.56;5050050;28;20119;-84
2021/10/24 02:33:01;;;;;;;34.67;21.50;;;;;;;3.15;100.00;102715.25;5054577;28;20056;-84
2021/10/24 02:35:27;;;;;;;52.40;26.38;;;;;;;3.08;100.00;102706.69;5054878;28;20112;-84
2021/10/24 02:37:53;;;;;;;43.28;22.63;;;;;;;3.04;100.00;102706.81;5055354;28;20029;-84
2021/10/24 02:40:19;;;;;;;48.55;26.40;;;;;;;2.99;100.00;102694.66;5053383;28;20060;-84
2021/10/24 02:42:47;;;;;;;75.53;32.72;;;;;;;2.94;100.00;102701.84;5055342;28;20041;-84
2021/10/24 02:45:12;;;;;;;70.53;30.65;;;;;;;2.88;100.00;102696.75;5054115;28;20048;-84
2021/10/24 02:47:39;;;;;;;50.97;24.55;;;;;;;2.81;100.00;102698.69;5053541;28;20464;-84
2021/10/24 02:50:05;;;;;;;212.95;57.90;;;;;;;2.77;100.00;102694.41;5055198;28;20116;-84
2021/10/24 02:52:31;;;;;;;143.70;45.00;;;;;;;2.73;100.00;102694.53;5036621;28;20127;-84
2021/10/24 02:54:56;;;;;;;115.72;38.53;;;;;;;2.69;100.00;102690.25;5054229;28;20115;-84
2021/10/24 02:57:22;;;;;;;125.55;40.35;;;;;;;2.65;100.00;102686.88;5053306;28;20536;-84
2021/10/24 02:59:47;;;;;;;105.13;37.00;;;;;;;2.60;100.00;102683.53;5054913;28;20044;-85
2021/10/24 03:02:12;;;;;;;85.07;31.77;;;;;;;2.56;100.00;102690.59;5055121;28;20036;-84
2021/10/24 03:04:38;;;;;;;81.32;30.52;;;;;;;2.53;100.00;102684.59;5053232;28;20029;-84
2021/10/24 03:07:03;;;;;;;73.57;29.02;;;;;;;2.50;100.00;102687.28;5054930;28;20086;-83
2021/10/24 03:09:28;;;;;;;64.13;27.05;;;;;;;2.46;100.00;102679.50;5054116;28;20040;-84
2021/10/24 03:11:55;;;;;;;82.20;34.97;;;;;;;2.44;100.00;102681.28;5054874;28;20175;-83
2021/10/24 03:14:20;;;;;;;65.35;27.17;;;;;;;2.40;100.00;102671.75;5054016;28;20489;-84
2021/10/24 03:16:46;;;;;;;53.38;24.52;;;;;;;2.35;100.00;102685.94;5054772;28;20037;-83
2021/10/24 03:19:11;;;;;;;72.45;31.25;;;;;;;2.32;100.00;102675.50;5053181;28;20035;-84
2021/10/24 03:21:37;;;;;;;57.70;26.90;;;;;;;2.28;100.00;102675.59;5054057;28;20404;-83
2021/10/24 03:24:04;;;;;;;54.53;26.73;;;;;;;2.25;100.00;102675.66;5053723;28;20421;-84
2021/10/24 03:26:30;;;;;;;40.63;20.08;;;;;;;2.22;100.00;102670.47;5053992;28;20047;-84
2021/10/24 03:28:56;;;;;;;35.60;17.60;;;;;;;2.19;100.00;102672.34;5054609;28;20032;-83
2021/10/24 03:31:21;;;;;;;32.88;17.95;;;;;;;2.18;100.00;102673.22;5052561;28;20393;-84
2021/10/24 03:33:47;;;;;;;49.53;25.17;;;;;;;2.15;100.00;102683.81;5054274;28;20029;-83
2021/10/24 03:36:13;;;;;;;31.35;16.90;;;;;;;2.12;100.00;102676.91;5054543;28;20033;-84
2021/10/24 03:38:39;;;;;;;49.00;28.08;;;;;;;2.10;100.00;102668.19;5053642;28;20136;-83
2021/10/24 03:41:05;;;;;;;31.80;17.70;;;;;;;2.07;100.00;102668.25;5054280;28;20040;-83
2021/10/24 03:43:31;;;;;;;28.70;17.67;;;;;;;2.05;100.00;102663.03;5053301;28;20116;-83
2021/10/24 03:45:56;;;;;;;31.48;18.75;;;;;;;2.05;100.00;102662.19;5054137;28;20119;-83
2021/10/24 03:48:21;;;;;;;37.60;21.63;;;;;;;2.04;100.00;102666.56;5051948;28;20092;-84
2021/10/24 03:50:47;;;;;;;28.20;17.58;;;;;;;2.03;100.00;102671.84;5054045;28;20087;-84
2021/10/24 03:53:12;;;;;;;70.75;33.28;;;;;;;2.01;100.00;102671.91;5053897;28;20079;-85
2021/10/24 03:55:38;;;;;;;78.15;36.75;;;;;;;2.08;100.00;102662.97;5053247;28;20457;-84
2021/10/24 03:58:03;;;;;;;68.38;34.50;;;;;;;2.13;100.00;102662.00;5053710;28;20040;-84
2021/10/24 04:00:29;;;;;;;63.22;31.55;;;;;;;2.14;100.00;102661.09;5053164;28;20057;-84
2021/10/24 04:02:57;;;;;;;38.70;21.73;;;;;;;2.10;100.00;102658.53;5053676;28;20440;-84
2021/10/24 04:05:24;;;;;;;36.55;20.98;;;;;;;2.09;100.00;102659.44;5053057;28;20111;-86
2021/10/24 04:07:50;;;;;;;47.28;26.83;;;;;;;2.08;100.00;102657.72;5054019;28;20465;-84
2021/10/24 04:10:17;;;;;;;25.77;17.42;;;;;;;2.08;100.00;102656.88;5053603;28;20083;-84
2021/10/24 04:12:44;;;;;;;33.15;21.02;;;;;;;2.08;100.00;102654.25;5051948;28;20370;-84
2021/10/24 04:15:10;;;;;;;49.85;27.88;;;;;;;2.13;100.00;102654.13;5053040;28;20080;-84
2021/10/24 04:17:37;;;;;;;31.20;20.17;;;;;;;2.14;100.00;102656.69;5052961;28;20413;-84
2021/10/24 04:20:05;;;;;;;34.63;21.92;;;;;;;2.25;100.00;102656.41;5053644;28;20060;-84
2021/10/24 04:22:31;;;;;;;31.17;20.25;;;;;;;2.32;100.00;102644.00;5051702;28;20090;-85
2021/10/24 04:24:56;;;;;;;38.22;20.90;;;;;;;2.37;100.00;102645.56;5052290;28;20032;-84
2021/10/24 04:27:21;;;;;;;34.30;20.20;;;;;;;2.43;99.98;102644.53;5052047;28;20049;-83
2021/10/24 04:29:47;;;;;;;47.42;26.00;;;;;;;2.49;100.00;102636.50;5051534;28;20037;-84
2021/10/24 04:32:12;;;;;;;38.17;23.50;;;;;;;2.54;100.00;102638.97;5035361;28;20127;-84
2021/10/24 04:34:37;;;;;;;29.75;20.08;;;;;;;2.54;100.00;102637.25;5052645;28;20068;-84
2021/10/24 04:37:03;;;;;;;33.45;21.55;;;;;;;2.55;100.00;102631.06;5035379;28;20040;-84
2021/10/24 04:39:28;;;;;;;62.75;32.88;;;;;;;2.59;99.95;102630.06;5051447;28;20033;-85
2021/10/24 04:41:54;;;;;;;45.42;26.33;;;;;;;2.57;100.00;102629.25;5052019;28;20389;-84
2021/10/24 04:44:19;;;;;;;51.08;27.23;;;;;;;2.59;100.00;102626.59;5053282;28;20488;-85
2021/10/24 04:46:44;;;;;;;42.88;26.13;;;;;;;2.59;100.00;102616.94;5052382;28;20025;-85
2021/10/24 04:49:10;;;;;;;35.28;22.33;;;;;;;2.58;100.00;102622.22;5052805;28;20021;-84
2021/10/24 04:51:35;;;;;;;37.38;23.75;;;;;;;2.56;100.00;102616.16;5052329;28;20029;-84
2021/10/24 04:54:00;;;;;;;52.35;31.52;;;;;;;2.59;100.00;102614.31;5052418;28;20443;-85
2021/10/24 04:56:26;;;;;;;36.03;21.50;;;;;;;2.61;100.00;102609.88;5052851;28;20036;-85
2021/10/24 04:58:51;;;;;;;35.75;23.08;;;;;;;2.62;100.00;102608.09;5050977;28;20029;-84
2021/10/24 05:01:16;;;;;;;70.45;36.25;;;;;;;2.63;100.00;102604.59;5052636;28;20035;-84
2021/10/24 05:03:42;;;;;;;56.67;29.30;;;;;;;2.62;100.00;102603.69;5052184;28;20128;-83
2021/10/24 05:06:07;;;;;;;39.85;23.30;;;;;;;2.60;100.00;102605.53;5034985;28;20127;-84
2021/10/24 05:08:33;;;;;;;32.72;21.30;;;;;;;2.61;100.00;102604.63;5052168;28;20040;-84
2021/10/24 05:10:59;;;;;;;44.15;24.80;;;;;;;2.60;100.00;102600.25;5052525;28;20496;-84
2021/10/24 05:13:25;;;;;;;53.13;29.50;;;;;;;2.64;100.00;102599.28;5050716;28;20524;-83
2021/10/24 05:15:50;;;;;;;41.75;24.92;;;;;;;2.69;100.00;102593.00;5052038;28;20072;-83
2021/10/24 05:18:16;;;;;;;36.17;24.15;;;;;;;2.67;100.00;102590.41;5034812;28;20045;-83
2021/10/24 05:20:41;;;;;;;36.53;22.98;;;;;;;2.63;100.00;102597.53;5050703;28;20470;-84
2021/10/24 05:23:07;;;;;;;45.15;26.55;;;;;;;2.57;100.00;102592.47;5051204;28;20033;-84
2021/10/24 05:25:32;;;;;;;40.63;23.33;;;;;;;2.52;100.00;102588.25;5050420;28;20565;-85
2021/10/24 05:27:58;;;;;;;52.72;29.05;;;;;;;2.52;100.00;102586.47;5052575;28;20033;-84
2021/10/24 05:30:24;;;;;;;49.42;26.65;;;;;;;2.47;100.00;102581.34;5052475;28;20053;-84
2021/10/24 05:32:50;;;;;;;43.67;27.38;;;;;;;2.44;100.00;102580.59;5034053;28;20536;-84
2021/10/24 05:35:16;;;;;;;39.05;25.17;;;;;;;2.41;100.00;102581.53;5052345;28;20029;-85
2021/10/24 05:37:41;;;;;;;45.65;26.17;;;;;;;2.39;100.00;102577.22;5051721;28;20033;-84
2021/10/24 05:40:07;;;;;;;54.13;29.95;;;;;;;2.34;100.00;102574.72;5052393;28;20495;-84
2021/10/24 05:42:33;;;;;;;48.25;28.65;;;;;;;2.31;100.00;102566.94;5051287;28;20128;-85
2021/10/24 05:44:58;;;;;;;45.95;27.42;;;;;;;2.27;100.00;102563.53;5051150;28;20136;-84
2021/10/24 05:47:24;;;;;;;37.88;21.90;;;;;;;2.25;100.00;102561.84;5052277;28;20029;-84
2021/10/24 05:49:50;;;;;;;51.70;30.55;;;;;;;2.23;100.00;102558.41;5051449;28;20033;-84
2021/10/24 05:52:17;;;;;;;45.90;26.65;;;;;;;2.19;100.00;102554.16;5052262;28;20033;-84
2021/10/24 05:54:42;;;;;;;46.70;25.70;;;;;;;2.14;100.00;102554.28;5050494;28;20037;-84
2021/10/24 05:57:08;;;;;;;43.22;26.48;;;;;;;2.10;100.00;102548.22;5051915;28;20040;-84
2021/10/24 05:59:34;;;;;;;46.20;28.80;;;;;;;2.12;100.00;102550.84;5034051;28;20397;-86
2021/10/24 06:01:59;;;;;;;66.25;33.10;;;;;;;2.14;100.00;102558.69;5052000;28;20032;-84
2021/10/24 06:04:24;;;;;;;51.47;29.33;;;;;;;2.11;100.00;102555.22;5034404;28;20122;-84
2021/10/24 06:06:50;;;;;;;37.35;22.80;;;;;;;2.05;100.00;102557.16;5053837;28;20028;-84
2021/10/24 06:09:15;;;;;;;36.30;22.55;;;;;;;1.99;100.00;102552.94;5054711;28;20114;-83
2021/10/24 06:14:21;;;;;;;43.33;24.17;;;;;;;1.88;100.00;102555.84;5054576;28;20126;-84
2021/10/24 06:16:47;;;;;;;36.83;21.70;;;;;;;1.86;100.00;102541.03;5054917;28;20524;-84
2021/10/24 06:19:12;;;;;;;42.63;26.10;;;;;;;1.80;100.00;102542.06;5054545;28;20037;-84
2021/10/24 06:21:38;;;;;;;37.72;23.08;;;;;;;1.77;100.00;102539.50;5054957;28;20125;-84
2021/10/24 06:24:04;;;;;;;48.55;28.23;;;;;;;1.72;100.00;102544.88;5055705;28;20127;-84
2021/10/24 06:26:29;;;;;;;50.90;27.55;;;;;;;1.69;100.00;102538.88;5055641;28;20097;-84
2021/10/24 06:28:55;;;;;;;41.83;25.15;;;;;;;1.67;100.00;102540.66;5054115;28;20086;-84
2021/10/24 06:31:20;;;;;;;37.63;22.60;;;;;;;1.63;100.00;102536.38;5055349;28;20057;-84
2021/10/24 06:33:45;;;;;;;35.15;22.60;;;;;;;1.61;100.00;102541.66;5053906;28;20032;-84
2021/10/24 06:36:11;;;;;;;39.20;22.73;;;;;;;1.62;100.00;102539.91;5054474;28;20550;-84
2021/10/24 06:38:36;;;;;;;47.70;26.45;;;;;;;1.65;100.00;102539.84;5055493;28;20040;-83
2021/10/24 06:41:02;;;;;;;43.15;26.55;;;;;;;1.66;100.00;102541.56;5054243;28;20064;-83
2021/10/24 06:43:27;;;;;;;50.17;26.85;;;;;;;1.68;100.00;102537.97;5055106;28;20041;-83
2021/10/24 06:45:52;;;;;;;71.78;33.67;;;;;;;1.71;100.00;102544.94;5054327;28;20064;-84
2021/10/24 06:48:18;;;;;;;59.47;29.75;;;;;;;1.71;100.00;102531.81;5054095;28;20033;-84
2021/10/24 06:50:43;;;;;;;42.40;24.50;;;;;;;1.72;100.00;102538.78;5054436;28;20074;-84
2021/10/24 06:53:08;;;;;;;42.05;23.35;;;;;;;1.71;100.00;102530.03;5055101;28;20033;-84
2021/10/24 06:55:34;;;;;;;65.30;33.63;;;;;;;1.72;100.00;102530.91;5055152;28;20037;-83
2021/10/24 06:57:59;;;;;;;51.53;26.90;;;;;;;1.73;100.00;102530.00;5054552;28;20793;-87
2021/10/24 07:00:26;;;;;;;50.63;27.33;;;;;;;1.75;100.00;102531.69;5053662;28;20033;-82
2021/10/24 07:02:52;;;;;;;55.53;29.77;;;;;;;1.76;100.00;102533.41;5054350;28;20025;-81
2021/10/24 07:05:19;;;;;;;57.88;27.95;;;;;;;1.79;100.00;102536.84;5053831;28;20049;-81
2021/10/24 07:07:45;;;;;;;49.85;27.30;;;;;;;1.81;100.00;102540.28;5054017;28;20029;-82
2021/10/24 07:10:12;;;;;;;37.38;21.88;;;;;;;1.83;100.00;102541.13;5054601;28;20470;-81
2021/10/24 07:12:38;;;;;;;49.92;27.45;;;;;;;1.85;100.00;102545.44;5054567;28;20504;-81
2021/10/24 07:15:06;;;;;;;47.90;27.63;;;;;;;1.86;100.00;102538.41;5054226;28;20065;-80
2021/10/24 07:17:31;;;;;;;44.58;24.42;;;;;;;1.89;100.00;102540.94;5053962;28;20033;-80
2021/10/24 07:19:56;;;;;;;42.70;25.35;;;;;;;1.95;100.00;102535.53;5054153;28;20040;-82
2021/10/24 07:22:22;;;;;;;65.30;33.20;;;;;;;2.04;100.00;102534.41;5054823;28;20155;-82
2021/10/24 07:24:47;;;;;;;49.67;27.38;;;;;;;2.10;100.00;102540.34;5054056;28;20044;-81
2021/10/24 07:27:13;;;;;;;55.67;27.60;;;;;;;2.17;100.00;102543.69;5054580;28;20032;-84
2021/10/24 07:29:38;;;;;;;57.35;28.05;;;;;;;2.26;100.00;102539.94;5054416;28;20119;-88
2021/10/24 07:32:04;;;;;;;51.85;27.23;;;;;;;2.34;100.00;102532.69;5053669;28;20037;-89
2021/10/24 07:34:29;;;;;;;48.17;25.48;;;;;;;2.43;100.00;102531.56;5054410;28;20033;-87
2021/10/24 07:36:55;;;;;;;44.15;23.77;;;;;;;2.56;100.00;102532.06;5053850;28;20050;-88
2021/10/24 07:39:20;;;;;;;44.13;24.80;;;;;;;2.68;100.00;102521.19;5054622;28;20037;-89
2021/10/24 07:41:46;;;;;;;49.70;25.80;;;;;;;2.87;100.00;102529.38;5053733;28;20457;-87
2021/10/24 07:44:13;;;;;;;44.53;24.67;;;;;;;3.04;100.00;102526.19;5053796;28;20029;-90
2021/10/24 07:46:39;;;;;;;38.72;22.13;;;;;;;3.18;100.00;102525.78;5058860;28;20045;-87
2021/10/24 07:49:04;;;;;;;41.47;24.17;;;;;;;3.32;100.00;102530.56;5059340;28;20040;-85
2021/10/24 07:51:30;;;;;;;43.70;22.27;;;;;;;3.45;100.00;102521.38;5054634;28;20056;-81
2021/10/24 07:53:55;;;;;;;35.78;21.23;;;;;;;3.59;100.00;102528.78;5053285;28;20060;-85
2021/10/24 07:56:22;;;;;;;42.17;24.83;;;;;;;3.76;100.00;102525.56;5052841;28;20024;-84
2021/10/24 07:58:47;;;;;;;36.28;22.65;;;;;;;3.91;100.00;102528.56;5052239;28;20419;-83
2021/10/24 08:01:14;;;;;;;42.08;24.20;;;;;;;4.05;100.00;102524.53;5035976;28;20035;-83
2021/10/24 08:03:40;;;;;;;43.30;23.20;;;;;;;4.16;100.00;102524.13;5053549;28;20054;-84
2021/10/24 08:06:06;;;;;;;42.13;23.25;;;;;;;4.29;100.00;102523.69;5051633;28;20048;-77
2021/10/24 08:08:33;;;;;;;30.77;20.85;;;;;;;4.40;100.00;102511.84;5053962;28;20040;-77
2021/10/24 08:10:59;;;;;;;38.55;21.40;;;;;;;4.53;100.00;102514.00;5053387;28;20115;-77
2021/10/24 08:13:24;;;;;;;36.35;20.35;;;;;;;4.65;100.00;102513.53;5052808;28;20147;-77
2021/10/24 08:15:50;;;;;;;32.25;18.40;;;;;;;4.75;100.00;102506.13;5049856;28;20492;-83
2021/10/24 08:18:15;;;;;;;32.95;19.23;;;;;;;4.86;100.00;102501.25;5050803;28;20033;-83
2021/10/24 08:20:41;;;;;;;36.95;21.30;;;;;;;5.01;100.00;102501.56;5049676;28;20396;-82
2021/10/24 08:23:06;;;;;;;37.60;21.30;;;;;;;5.13;100.00;102503.72;5050249;28;20033;-85
2021/10/24 08:25:32;;;;;;;30.70;20.60;;;;;;;5.24;100.00;102503.25;5050556;28;20116;-84
2021/10/24 08:28:00;;;;;;;29.05;17.65;;;;;;;5.41;100.00;102497.28;5050110;28;20037;-84
2021/10/24 08:30:25;;;;;;;30.00;17.55;;;;;;;5.53;100.00;102496.75;5049437;28;20033;-83
2021/10/24 08:32:51;;;;;;;27.98;15.85;;;;;;;5.65;100.00;102493.59;5049817;28;20032;-84
2021/10/24 08:35:17;;;;;;;22.02;15.40;;;;;;;5.77;100.00;102486.06;5050615;28;20032;-81
2021/10/24 08:37:42;;;;;;;17.25;13.27;;;;;;;5.91;100.00;102483.69;5039887;28;20033;-83
2021/10/24 08:40:09;;;;;;;19.30;12.70;;;;;;;6.07;100.00;102480.38;5030062;28;20033;-87
2021/10/24 08:42:38;;;;;;;17.77;12.10;;;;;;;6.19;100.00;102474.50;5030291;28;20037;-85
2021/10/24 08:45:05;;;;;;;16.60;11.07;;;;;;;6.33;100.00;102468.59;5029912;28;20471;-82
2021/10/24 08:47:30;;;;;;;18.02;10.60;;;;;;;6.47;100.00;102470.59;5030305;28;20424;-83
2021/10/24 08:49:56;;;;;;;13.40;9.70;;;;;;;6.55;97.78;102470.22;5029601;28;20104;-80
2021/10/24 08:52:25;;;;;;;14.80;9.82;;;;;;;6.70;96.89;102473.00;5030360;28;20040;-90
2021/10/24 08:54:53;;;;;;;15.25;9.85;;;;;;;6.75;95.49;102469.25;5030703;28;20045;-83
2021/10/24 08:57:25;;;;;;;12.55;9.30;;;;;;;6.76;94.67;102468.34;5030562;28;20060;-86
2021/10/24 08:59:53;;;;;;;12.02;9.10;;;;;;;6.79;94.34;102471.69;5030367;28;20056;-85
2021/10/24 09:02:22;;;;;;;10.82;8.48;;;;;;;6.88;93.59;102475.66;5030166;28;20478;-83
2021/10/24 09:04:50;;;;;;;12.38;9.48;;;;;;;6.95;93.97;102465.66;5030081;28;20241;-81
2021/10/24 09:07:15;;;;;;;14.70;9.15;;;;;;;7.15;93.03;102467.28;5012038;28;20120;-81
2021/10/24 09:09:41;;;;;;;13.32;8.27;;;;;;;7.62;89.79;102469.31;5029695;28;20279;-81
2021/10/24 09:12:12;;;;;;;13.85;7.72;;;;;;;8.21;85.85;102463.53;5029349;28;20060;-83
2021/10/24 09:14:38;;;;;;;;;;;;;;;8.48;82.97;102469.19;5029754;28;20076;-80
2021/10/24 09:17:05;;;;;;;10.88;7.15;;;;;;;8.53;81.09;102461.81;5029385;28;20368;-82
2021/10/24 09:19:39;;;;;;;12.90;6.75;;;;;;;8.44;81.52;102468.47;5029529;28;20553;-78
2021/10/24 09:22:23;;;;;;;12.05;6.28;;;;;;;8.70;79.12;102455.53;5027751;28;20052;-76
2021/10/24 09:25:07;;;;;;;9.82;6.03;;;;;;;9.66;74.49;102447.28;5036214;28;20500;-84
2021/10/24 09:27:46;;;;;;;10.85;5.63;;;;;;;11.47;67.18;102447.16;5046454;28;20032;-85
2021/10/24 09:30:14;;;;;;;8.07;4.88;;;;;;;13.30;60.43;102445.53;5051227;28;20025;-83
2021/10/24 09:32:55;;;;;;;7.72;5.28;;;;;;;14.45;54.72;102449.81;5051022;28;20420;-85
2021/10/24 09:35:39;;;;;;;8.18;4.43;;;;;;;15.04;53.29;102447.69;5050269;28;20029;-87
2021/10/24 09:38:26;;;;;;;8.35;5.07;;;;;;;14.51;53.66;102445.81;5051813;28;20025;-84
2021/10/24 09:40:57;;;;;;;8.23;4.78;;;;;;;14.59;52.41;102447.84;5052663;28;20196;-85
2021/10/24 09:43:24;;;;;;;8.93;5.55;;;;;;;15.00;52.71;102435.53;5056667;28;20032;-86
2021/10/24 09:45:57;;;;;;;7.25;4.82;;;;;;;15.62;51.72;102441.00;5056498;28;20064;-85
2021/10/24 09:48:24;;;;;;;8.13;4.95;;;;;;;16.56;47.66;102436.25;5056114;28;20029;-82
2021/10/24 09:50:52;;;;;;;7.60;4.93;;;;;;;16.57;48.39;102442.50;5056285;28;20029;-79
2021/10/24 09:53:24;;;;;;;11.05;4.72;;;;;;;16.96;46.01;102438.97;5055325;28;20040;-82
2021/10/24 09:55:56;;;;;;;10.80;5.10;;;;;;;17.15;46.78;102438.94;5056452;28;20033;-86
2021/10/24 09:58:24;;;;;;;10.25;5.05;;;;;;;17.46;45.99;102433.38;5055837;28;20040;-86
2021/10/24 10:00:50;;;;;;;16.13;5.50;;;;;;;17.53;46.41;102437.19;5056980;28;20064;-84
2021/10/24 10:03:17;;;;;;;7.15;4.43;;;;;;;17.41;43.98;102431.13;5055339;28;20056;-81
2021/10/24 10:05:43;;;;;;;7.80;4.60;;;;;;;16.64;45.03;102426.63;5056216;28;20037;-84
2021/10/24 10:08:12;;;;;;;8.60;4.40;;;;;;;15.79;49.64;102432.34;5055398;28;20107;-83
2021/10/24 10:10:40;;;;;;;9.68;4.65;;;;;;;14.55;52.44;102431.16;5055911;28;20124;-81
2021/10/24 10:13:10;;;;;;;12.07;5.30;;;;;;;13.95;55.85;102425.31;5055145;28;20086;-80
2021/10/24 10:15:42;;;;;;;8.43;5.22;;;;;;;13.32;56.42;102430.22;5054841;28;20029;-78
2021/10/24 10:18:07;;;;;;;;;;;;;;;12.71;57.52;102431.22;5056048;28;20029;-82
2021/10/24 10:20:35;;;;;;;13.07;5.55;;;;;;;12.76;58.46;102428.22;5054416;28;19913;-83
2021/10/24 10:23:09;;;;;;;7.93;5.30;;;;;;;12.10;61.58;102420.56;5055517;28;20583;-83
2021/10/24 10:25:37;;;;;;;8.55;5.50;;;;;;;11.38;63.76;102423.81;5055690;28;20549;-82
2021/10/24 10:28:03;;;;;;;9.93;6.13;;;;;;;10.94;64.69;102418.72;5055289;28;20025;-90
2021/10/24 10:30:35;;;;;;;11.43;6.35;;;;;;;10.58;65.75;102422.88;5055284;28;20477;-80
2021/10/24 10:33:04;;;;;;;10.18;5.53;;;;;;;10.40;65.76;102421.41;5055551;28;20024;-82
2021/10/24 10:35:30;;;;;;;10.80;6.05;;;;;;;10.29;68.46;102423.88;5055233;28;20036;-76
2021/10/24 10:38:03;;;;;;;8.45;5.85;;;;;;;10.12;67.36;102425.81;5055647;28;20124;-78
2021/10/24 10:40:38;;;;;;;12.10;5.57;;;;;;;10.02;69.62;102427.34;5055264;28;20033;-77
2021/10/24 10:43:13;;;;;;;7.38;6.20;;;;;;;10.02;69.92;102430.00;5055403;28;20025;-75
2021/10/24 10:45:42;;;;;;;12.35;5.50;;;;;;;9.93;71.06;102420.78;5055028;28;20098;-75
2021/10/24 10:48:23;;;;;;;11.25;6.20;;;;;;;9.91;70.08;102414.69;5054630;28;20462;-75
2021/10/24 10:50:54;;;;;;;7.32;6.32;;;;;;;9.93;70.80;102406.63;5055273;28;20036;-76
2021/10/24 10:53:45;;;;;;;9.93;5.60;;;;;;;9.93;70.49;102402.19;5053413;28;20454;-78
2021/10/24 10:56:16;;;;;;;8.48;5.40;;;;;;;9.95;69.62;102407.41;5054410;28;20037;-79
2021/10/24 10:58:44;;;;;;;9.73;5.95;;;;;;;10.01;68.95;102404.34;5055174;28;20032;-77
2021/10/24 11:01:20;;;;;;;8.18;5.63;;;;;;;10.02;71.07;102408.72;5054505;28;20040;-79
2021/10/24 11:03:49;;;;;;;6.95;5.10;;;;;;;10.07;69.98;102399.47;5054927;28;20021;-77
2021/10/24 11:06:24;;;;;;;7.50;5.45;;;;;;;10.10;69.20;102409.06;5054255;28;20021;-80
2021/10/24 11:08:54;;;;;;;8.32;5.63;;;;;;;10.19;70.39;102412.97;5054745;28;20029;-82
2021/10/24 11:11:40;;;;;;;9.70;5.78;;;;;;;10.41;70.41;102413.31;5054272;28;20044;-75
2021/10/24 11:14:15;;;;;;;8.50;5.57;;;;;;;10.69;70.83;102403.53;5054297;28;20099;-73